Time;durP1;ratioP1;P1;durP2;ratioP2;P2;SDS_P1;SDS_P2;PMS_P1;PMS_P2;Temp;Humidity;BMP_temperature;BMP_pressure;BME280_temperature;BME280_humidity;BME280_pressure;Samples;Min_cycle;Max_cycle;Signal;HPM_P1;HPM_P2
2021/01/09 00:00:22;;;;;;;27.23;19.10;;;;;;;-0.41;81.35;98931.36;119242;1150;65070;-79
2021/01/09 00:03:02;;;;;;;26.13;16.87;;;;;;;-0.43;81.83;98934.00;119228;1150;65063;-81
2021/01/09 00:05:28;;;;;;;30.10;16.55;;;;;;;-0.43;81.59;98935.76;119259;1150;65280;-78
2021/01/09 00:07:55;;;;;;;29.27;17.07;;;;;;;-0.43;81.48;98931.38;119235;1151;65120;-79
2021/01/09 00:10:21;;;;;;;33.75;20.68;;;;;;;-0.41;81.50;98932.20;118975;1151;65677;-79
2021/01/09 00:12:47;;;;;;;33.10;20.15;;;;;;;-0.39;81.36;98926.95;119264;1151;65570;-79
2021/01/09 00:15:14;;;;;;;24.70;14.90;;;;;;;-0.37;81.59;98923.40;119243;1150;65124;-79
2021/01/09 00:17:41;;;;;;;23.30;14.93;;;;;;;-0.34;80.91;98931.17;119111;1151;65178;-81
2021/01/09 00:20:12;;;;;;;24.80;13.87;;;;;;;-0.31;81.15;98923.23;118638;1151;65142;-78
2021/01/09 00:22:40;;;;;;;20.57;13.13;;;;;;;-0.29;81.19;98925.80;118662;1150;65150;-79
2021/01/09 00:25:08;;;;;;;22.57;14.40;;;;;;;-0.27;81.23;98929.25;118632;1150;65114;-79
2021/01/09 00:27:34;;;;;;;20.40;13.27;;;;;;;-0.25;80.80;98927.47;118670;1150;65151;-79
2021/01/09 00:30:03;;;;;;;19.60;13.43;;;;;;;-0.24;80.62;98930.06;118884;1151;65249;-79
2021/01/09 00:32:29;;;;;;;19.80;13.33;;;;;;;-0.22;80.88;98930.86;119204;1150;65058;-79
2021/01/09 00:34:55;;;;;;;18.93;11.80;;;;;;;-0.17;80.97;98932.52;119229;1150;65215;-79
2021/01/09 00:37:26;;;;;;;20.77;13.17;;;;;;;-0.15;80.87;98922.88;119263;1150;65105;-79
2021/01/09 00:39:52;;;;;;;21.73;13.47;;;;;;;-0.14;81.08;98914.95;119227;1150;65124;-79
2021/01/09 00:42:19;;;;;;;20.23;12.37;;;;;;;-0.11;80.95;98921.88;119205;1150;65117;-79
2021/01/09 00:44:45;;;;;;;44.23;21.30;;;;;;;-0.11;80.35;98927.97;119245;1150;65085;-78
2021/01/09 00:47:12;;;;;;;31.30;18.83;;;;;;;-0.10;80.33;98926.23;119213;1151;65153;-79
2021/01/09 00:49:38;;;;;;;24.92;15.72;;;;;;;-0.09;80.65;98925.33;119224;1150;65120;-79
2021/01/09 00:52:05;;;;;;;18.60;12.10;;;;;;;-0.09;80.72;98927.95;119252;1150;65115;-79
2021/01/09 00:54:32;;;;;;;18.00;13.10;;;;;;;-0.06;80.48;98928.72;119144;1150;65079;-79
2021/01/09 00:56:59;;;;;;;22.10;13.50;;;;;;;-0.05;80.94;98940.08;118735;1150;65129;-79
2021/01/09 00:59:26;;;;;;;17.27;13.70;;;;;;;-0.05;80.80;98938.31;119129;1151;65121;-78
2021/01/09 01:01:53;;;;;;;19.43;13.63;;;;;;;-0.03;81.01;98944.39;118911;1150;65034;-79
2021/01/09 01:04:20;;;;;;;19.83;13.10;;;;;;;-0.01;80.53;98937.33;118943;1150;65060;-78
2021/01/09 01:06:47;;;;;;;18.37;12.27;;;;;;;-0.04;80.55;98940.03;119213;1150;65676;-79
2021/01/09 01:09:13;;;;;;;22.27;13.93;;;;;;;-0.05;80.82;98943.56;119218;1150;65101;-79
2021/01/09 01:11:41;;;;;;;24.80;15.13;;;;;;;-0.04;81.50;98937.41;119239;1150;65146;-79
2021/01/09 01:14:08;;;;;;;21.03;14.23;;;;;;;-0.03;81.68;98941.77;119222;1150;65188;-79
2021/01/09 01:16:34;;;;;;;19.77;14.53;;;;;;;-0.01;80.95;98941.70;119236;1150;65124;-79
2021/01/09 01:19:00;;;;;;;19.73;14.90;;;;;;;-0.03;81.48;98940.88;119105;1150;65188;-79
2021/01/09 01:21:27;;;;;;;21.23;16.07;;;;;;;-0.03;80.88;98944.39;118767;1151;65134;-79
2021/01/09 01:23:54;;;;;;;19.07;14.20;;;;;;;-0.04;81.04;98942.65;119212;1150;65117;-79
2021/01/09 01:26:20;;;;;;;20.43;13.37;;;;;;;-0.04;81.29;98934.78;118794;1150;65125;-79
2021/01/09 01:28:47;;;;;;;21.07;13.50;;;;;;;-0.04;81.29;98934.78;118625;1151;65020;-79
2021/01/09 01:31:13;;;;;;;20.53;13.73;;;;;;;-0.03;81.10;98935.64;118736;1151;65184;-81
2021/01/09 01:33:42;;;;;;;19.27;13.53;;;;;;;-0.01;81.44;98942.56;118941;1151;65114;-80
2021/01/09 01:36:12;;;;;;;18.17;12.37;;;;;;;-0.02;81.38;98935.62;118655;1150;65137;-80
2021/01/09 01:38:39;;;;;;;;;;;;;;;-0.02;81.41;98942.63;119175;1150;65159;-80
2021/01/09 01:41:06;;;;;;;21.93;13.97;;;;;;;-0.03;81.03;98941.77;118964;1150;65130;-80
2021/01/09 01:43:34;;;;;;;20.10;13.30;;;;;;;-0.01;81.35;98937.33;118676;1150;65100;-78
2021/01/09 01:46:02;;;;;;;18.90;12.87;;;;;;;-0.03;81.37;98939.15;119271;1150;65200;-79
2021/01/09 01:48:30;;;;;;;18.10;13.43;;;;;;;-0.03;80.96;98933.02;119061;1150;65191;-79
2021/01/09 01:50:57;;;;;;;19.63;14.07;;;;;;;-0.07;80.99;98941.87;119233;1151;65120;-79
2021/01/09 01:53:27;;;;;;;20.70;14.17;;;;;;;-0.12;80.76;98943.74;118891;1151;65127;-79
2021/01/09 01:55:54;;;;;;;20.83;13.63;;;;;;;-0.15;80.64;98931.58;118646;1151;65251;-80
2021/01/09 01:58:21;;;;;;;19.37;14.10;;;;;;;-0.15;80.87;98938.59;119008;1151;65113;-80
2021/01/09 02:00:49;;;;;;;20.07;13.03;;;;;;;-0.15;80.81;98934.20;118618;1150;65046;-80
2021/01/09 02:03:21;;;;;;;20.35;13.15;;;;;;;-0.17;81.29;98930.75;118928;1150;65117;-78
2021/01/09 02:06:08;;;;;;;24.35;13.85;;;;;;;-0.18;81.10;98938.66;118701;1151;65619;-79
2021/01/09 02:08:40;;;;;;;19.83;13.87;;;;;;;-0.23;81.01;98934.39;118734;1151;65246;-79
2021/01/09 02:11:21;;;;;;;19.93;14.50;;;;;;;-0.27;81.05;98924.87;119256;1150;65124;-79
2021/01/09 02:13:57;;;;;;;21.00;14.33;;;;;;;-0.28;81.11;98938.02;119228;1150;65175;-79
2021/01/09 02:16:25;;;;;;;22.20;15.00;;;;;;;-0.32;80.93;98938.97;119250;1151;65117;-79
2021/01/09 02:18:53;;;;;;;21.43;14.83;;;;;;;-0.33;81.22;98938.12;119257;1150;65094;-79
2021/01/09 02:21:51;;;;;;;22.85;15.60;;;;;;;-0.34;81.01;98940.77;119312;1151;65375;-80
2021/01/09 02:24:19;;;;;;;23.13;15.20;;;;;;;-0.39;81.29;98932.19;118919;1150;65053;-80
2021/01/09 02:26:48;;;;;;;17.97;12.90;;;;;;;-0.40;81.05;98938.30;118765;1151;65217;-80
2021/01/09 02:29:15;;;;;;;23.85;15.10;;;;;;;-0.45;81.40;98934.05;118954;1151;65108;-79
2021/01/09 02:32:06;;;;;;;20.40;14.30;;;;;;;-0.46;81.29;98934.92;119278;1150;65069;-79
2021/01/09 02:34:40;;;;;;;21.00;14.30;;;;;;;-0.48;81.46;98934.09;119213;1151;66370;-79
2021/01/09 02:37:09;;;;;;;23.57;15.57;;;;;;;-0.49;81.34;98937.62;119257;1150;65165;-78
2021/01/09 02:39:36;;;;;;;25.53;15.57;;;;;;;-0.48;81.51;98935.86;119215;1150;65123;-79
2021/01/09 02:42:03;;;;;;;48.23;22.93;;;;;;;-0.47;81.33;98940.22;119246;1150;65115;-78
2021/01/09 02:44:31;;;;;;;24.27;16.93;;;;;;;-0.46;81.20;98948.02;119214;1151;65098;-79
2021/01/09 02:46:59;;;;;;;22.97;14.47;;;;;;;-0.42;81.39;98935.73;119259;1150;65286;-79
2021/01/09 02:49:26;;;;;;;22.07;14.60;;;;;;;-0.40;81.21;98941.77;119257;1150;65129;-79
2021/01/09 02:51:52;;;;;;;21.95;15.00;;;;;;;-0.45;80.93;98939.28;119225;1150;65075;-79
2021/01/09 02:54:18;;;;;;;19.57;14.00;;;;;;;-0.52;80.82;98939.45;118941;1151;65247;-78
2021/01/09 02:56:45;;;;;;;18.63;14.87;;;;;;;-0.59;80.98;98945.72;119114;1150;65121;-79
2021/01/09 02:59:11;;;;;;;21.43;14.53;;;;;;;-0.64;81.38;98935.34;119216;1150;65702;-79
2021/01/09 03:01:38;;;;;;;19.45;12.65;;;;;;;-0.69;81.57;98942.44;119030;1150;65191;-79
2021/01/09 03:04:04;;;;;;;22.27;14.93;;;;;;;-0.72;81.32;98945.98;119027;1151;65102;-79
2021/01/09 03:06:30;;;;;;;19.87;14.73;;;;;;;-0.73;81.57;98944.28;119070;1151;65220;-80
2021/01/09 03:08:57;;;;;;;19.33;14.73;;;;;;;-0.71;81.14;98941.61;119241;1150;65101;-80
2021/01/09 03:11:23;;;;;;;22.70;14.90;;;;;;;-0.65;81.76;98945.87;119212;1150;65223;-80
2021/01/09 03:13:50;;;;;;;20.13;14.20;;;;;;;-0.61;81.53;98950.13;119243;1150;65482;-80
2021/01/09 03:16:17;;;;;;;20.07;14.73;;;;;;;-0.56;81.47;98951.73;119236;1151;65268;-80
2021/01/09 03:18:43;;;;;;;20.47;14.37;;;;;;;-0.51;81.39;98955.11;119242;1150;65145;-79
2021/01/09 03:21:10;;;;;;;18.80;13.47;;;;;;;-0.46;81.11;98950.63;119233;1151;65223;-79
2021/01/09 03:23:36;;;;;;;19.13;14.30;;;;;;;-0.42;81.35;98955.79;119209;1150;65034;-79
2021/01/09 03:26:03;;;;;;;20.10;14.77;;;;;;;-0.39;81.50;98950.52;119240;1150;65223;-80
2021/01/09 03:28:29;;;;;;;20.67;14.90;;;;;;;-0.33;81.53;98953.83;119201;1150;65060;-79
2021/01/09 03:30:56;;;;;;;22.43;15.50;;;;;;;-0.32;81.10;98947.69;119208;1150;65228;-79
2021/01/09 03:33:22;;;;;;;20.85;13.15;;;;;;;-0.30;80.78;98953.75;119248;1151;65082;-79
2021/01/09 03:35:49;;;;;;;17.17;13.37;;;;;;;-0.26;81.45;98959.80;119035;1150;65229;-78
2021/01/09 03:38:15;;;;;;;17.23;13.17;;;;;;;-0.26;80.78;98954.56;119228;1150;65101;-79
2021/01/09 03:40:42;;;;;;;21.40;14.00;;;;;;;-0.25;80.73;98953.65;119238;1150;65151;-79
2021/01/09 03:43:08;;;;;;;17.50;13.00;;;;;;;-0.25;81.06;98959.74;119057;1150;65105;-79
2021/01/09 03:45:35;;;;;;;17.77;13.90;;;;;;;-0.27;80.99;98964.15;119209;1150;65121;-79
2021/01/09 03:48:01;;;;;;;19.43;14.20;;;;;;;-0.27;80.64;98961.53;119235;1151;65115;-79
2021/01/09 03:50:28;;;;;;;19.37;13.43;;;;;;;-0.26;81.21;98965.03;118985;1151;65149;-79
2021/01/09 03:52:54;;;;;;;18.70;13.07;;;;;;;-0.24;80.62;98963.22;119257;1150;65034;-78
2021/01/09 03:55:21;;;;;;;19.87;13.47;;;;;;;-0.24;81.09;98963.22;119036;1151;65152;-78
2021/01/09 03:57:47;;;;;;;18.97;13.93;;;;;;;-0.23;80.42;98963.19;119011;1151;65084;-81
2021/01/09 04:00:14;;;;;;;20.67;13.10;;;;;;;-0.20;81.14;98967.50;119206;1150;65171;-80
2021/01/09 04:02:41;;;;;;;19.20;12.90;;;;;;;-0.19;80.96;98965.73;119236;1150;65031;-79
2021/01/09 04:05:09;;;;;;;17.70;12.90;;;;;;;-0.20;80.51;98964.87;119003;1151;65127;-79
2021/01/09 04:07:35;;;;;;;20.70;14.05;;;;;;;-0.18;80.48;98970.09;119330;1151;65134;-79
2021/01/09 04:10:04;;;;;;;19.47;13.90;;;;;;;-0.19;80.56;98965.73;119025;1151;65153;-79
2021/01/09 04:12:30;;;;;;;18.83;13.20;;;;;;;-0.20;80.67;98969.27;119226;1150;65038;-78
2021/01/09 04:14:57;;;;;;;19.17;13.50;;;;;;;-0.22;80.30;98967.52;118998;1151;65123;-80
2021/01/09 04:17:23;;;;;;;18.23;13.07;;;;;;;-0.22;80.74;98964.05;119322;1151;65257;-80
2021/01/09 04:19:50;;;;;;;17.45;12.55;;;;;;;-0.22;80.74;98964.91;119100;1151;65124;-79
2021/01/09 04:22:16;;;;;;;19.87;13.40;;;;;;;-0.19;80.76;98977.06;119332;1151;65243;-80
2021/01/09 04:24:43;;;;;;;23.95;14.35;;;;;;;-0.19;80.41;98969.20;119071;1150;65124;-79
2021/01/09 04:27:09;;;;;;;25.43;14.40;;;;;;;-0.15;80.51;98970.02;119016;1151;65309;-80
2021/01/09 04:29:36;;;;;;;24.10;15.07;;;;;;;-0.13;81.08;98973.44;119000;1151;65098;-78
2021/01/09 04:32:03;;;;;;;22.27;15.07;;;;;;;-0.10;80.25;98979.48;118493;1151;65223;-79
2021/01/09 04:34:29;;;;;;;21.93;14.73;;;;;;;-0.09;80.36;98980.34;119229;1150;65059;-79
2021/01/09 04:36:56;;;;;;;19.80;13.93;;;;;;;-0.08;80.14;98971.56;119206;1150;65271;-79
2021/01/09 04:39:23;;;;;;;23.17;14.30;;;;;;;-0.07;80.16;98976.78;119030;1150;65124;-79
2021/01/09 04:41:49;;;;;;;22.40;15.40;;;;;;;-0.06;80.10;98988.11;118983;1151;65200;-81
2021/01/09 04:44:16;;;;;;;19.43;14.87;;;;;;;-0.07;80.83;98976.78;118990;1151;65203;-79
2021/01/09 04:46:53;;;;;;;20.83;15.83;;;;;;;-0.05;80.23;98985.47;118966;1151;65188;-79
2021/01/09 04:49:22;;;;;;;20.30;15.15;;;;;;;-0.05;80.73;98988.09;119221;1150;65172;-79
2021/01/09 04:51:50;;;;;;;22.67;14.67;;;;;;;-0.04;80.76;98984.56;119291;1150;65248;-79
2021/01/09 04:54:19;;;;;;;20.70;14.00;;;;;;;-0.02;81.07;98981.91;119262;1150;65140;-79
2021/01/09 04:56:48;;;;;;;22.17;15.20;;;;;;;-0.03;80.24;98983.68;119190;1150;65229;-79
2021/01/09 04:59:17;;;;;;;22.70;15.87;;;;;;;-0.02;80.24;98990.63;119291;1150;65133;-79
2021/01/09 05:01:46;;;;;;;22.17;15.63;;;;;;;-0.04;80.79;98981.94;118910;1150;65216;-79
2021/01/09 05:04:14;;;;;;;19.40;14.38;;;;;;;-0.04;80.90;98989.80;119084;1150;65124;-79
2021/01/09 05:06:43;;;;;;;22.87;16.23;;;;;;;-0.02;81.16;98984.53;119229;1150;65461;-80
2021/01/09 05:09:12;;;;;;;21.27;17.13;;;;;;;-0.02;80.98;98979.30;119234;1150;65121;-79
2021/01/09 05:11:41;;;;;;;26.75;17.70;;;;;;;-0.06;80.45;98993.35;119030;1151;65165;-79
2021/01/09 05:14:09;;;;;;;22.90;16.55;;;;;;;-0.11;81.07;98996.08;119260;1150;65149;-79
2021/01/09 05:16:37;;;;;;;26.27;16.43;;;;;;;-0.13;80.74;98995.28;119212;1150;65121;-79
2021/01/09 05:19:05;;;;;;;24.53;17.23;;;;;;;-0.15;80.63;98999.69;119228;1150;65045;-78
2021/01/09 05:21:35;;;;;;;39.05;21.70;;;;;;;-0.14;80.61;98997.92;118950;1151;65034;-81
2021/01/09 05:24:07;;;;;;;34.70;20.55;;;;;;;-0.13;80.77;99007.48;119280;1150;65124;-79
2021/01/09 05:26:35;;;;;;;28.00;16.73;;;;;;;-0.12;80.73;99006.61;119201;1150;65210;-81
2021/01/09 05:29:04;;;;;;;29.50;18.30;;;;;;;-0.14;80.33;99001.39;119265;1150;65168;-80
2021/01/09 05:31:35;;;;;;;26.90;18.93;;;;;;;-0.15;81.16;99010.16;119237;1150;66332;-79
2021/01/09 05:34:03;;;;;;;28.80;18.65;;;;;;;-0.14;80.82;99011.87;119250;1151;65117;-79
2021/01/09 05:36:30;;;;;;;26.67;19.17;;;;;;;-0.13;80.97;99021.47;119232;1150;65137;-79
2021/01/09 05:38:56;;;;;;;29.50;18.53;;;;;;;-0.12;81.07;99017.08;118942;1151;65242;-79
2021/01/09 05:41:24;;;;;;;27.10;18.20;;;;;;;-0.13;80.72;99021.47;119245;1151;65127;-79
2021/01/09 05:44:06;;;;;;;30.23;19.57;;;;;;;-0.09;80.77;99028.34;119270;1150;65193;-80
2021/01/09 05:46:35;;;;;;;25.20;18.23;;;;;;;-0.08;80.94;99024.84;119281;1150;65036;-79
2021/01/09 05:49:02;;;;;;;30.30;19.40;;;;;;;-0.06;80.62;99035.27;119307;1150;65114;-80
2021/01/09 05:51:30;;;;;;;30.97;20.03;;;;;;;-0.05;80.58;99037.86;119216;1150;65075;-80
2021/01/09 05:53:56;;;;;;;29.60;18.97;;;;;;;-0.04;80.66;99042.19;119272;1150;65580;-78
2021/01/09 05:56:24;;;;;;;27.67;20.53;;;;;;;-0.03;81.30;99043.05;119248;1150;65567;-79
2021/01/09 05:58:51;;;;;;;29.10;19.03;;;;;;;-0.04;81.18;99047.44;119273;1150;65227;-79
2021/01/09 06:01:26;;;;;;;33.03;21.43;;;;;;;-0.02;81.09;99050.88;119271;1150;65174;-79
2021/01/09 06:03:57;;;;;;;31.40;21.30;;;;;;;0.00;81.38;99048.24;119215;1150;65184;-79
2021/01/09 06:06:58;;;;;;;32.70;21.33;;;;;;;0.02;80.63;99049.05;119249;1150;65166;-79
2021/01/09 06:09:33;;;;;;;29.17;20.10;;;;;;;-0.02;80.85;99060.52;119240;1150;65589;-79
2021/01/09 06:12:05;;;;;;;34.73;22.30;;;;;;;-0.04;80.91;99065.77;119236;1151;65474;-79
2021/01/09 06:14:35;;;;;;;28.20;19.70;;;;;;;-0.09;81.29;99064.16;119271;1150;65105;-80
2021/01/09 06:17:02;;;;;;;;;;;;;;;-0.10;80.71;99065.06;119268;1150;65147;-80
2021/01/09 06:19:31;;;;;;;30.05;21.10;;;;;;;-0.14;81.19;99076.49;119310;1150;65184;-80
2021/01/09 06:21:59;;;;;;;32.97;20.63;;;;;;;-0.14;81.28;99073.88;119253;1151;65124;-80
2021/01/09 06:24:25;;;;;;;33.50;22.27;;;;;;;-0.16;80.99;99065.19;119234;1150;65102;-80
2021/01/09 06:26:53;;;;;;;30.97;20.83;;;;;;;-0.16;81.06;99071.27;119238;1150;65136;-80
2021/01/09 06:29:25;;;;;;;31.57;20.63;;;;;;;-0.14;81.45;99064.25;119152;1151;65462;-80
2021/01/09 06:32:03;;;;;;;28.47;20.77;;;;;;;-0.15;81.08;99066.92;118900;1151;65155;-80
2021/01/09 06:34:32;;;;;;;27.70;21.00;;;;;;;-0.17;81.53;99076.56;118755;1150;65150;-79
2021/01/09 06:37:04;;;;;;;28.65;20.65;;;;;;;-0.22;81.06;99082.75;119325;1150;65137;-78
2021/01/09 06:39:33;;;;;;;25.47;17.57;;;;;;;-0.26;81.07;99086.35;119148;1150;65143;-78
2021/01/09 06:42:04;;;;;;;29.07;19.77;;;;;;;-0.29;81.62;99096.01;119213;1150;65159;-79
2021/01/09 06:44:31;;;;;;;31.73;19.42;;;;;;;-0.31;81.72;99097.83;119209;1150;65129;-79
2021/01/09 06:46:58;;;;;;;27.87;18.33;;;;;;;-0.33;81.19;99103.08;118943;1150;65277;-79
2021/01/09 06:49:25;;;;;;;29.13;18.67;;;;;;;-0.36;81.98;99104.91;118964;1150;65184;-81
2021/01/09 06:51:57;;;;;;;25.27;17.43;;;;;;;-0.36;81.91;99107.53;119251;1150;65123;-80
2021/01/09 06:54:26;;;;;;;24.83;16.83;;;;;;;-0.38;81.92;99107.55;119221;1150;65175;-79
2021/01/09 06:57:12;;;;;;;27.40;18.43;;;;;;;-0.39;81.62;99105.84;119282;1150;65120;-79
2021/01/09 06:59:41;;;;;;;27.37;18.93;;;;;;;-0.41;81.87;99112.86;119225;1150;65196;-81
2021/01/09 07:02:13;;;;;;;27.23;17.83;;;;;;;-0.41;81.31;99118.09;119278;1150;65120;-81
2021/01/09 07:05:01;;;;;;;24.67;17.70;;;;;;;-0.40;81.31;99121.56;119228;1149;65118;-80
2021/01/09 07:07:50;;;;;;;27.67;18.63;;;;;;;-0.38;81.38;99118.02;119256;1150;65564;-81
2021/01/09 07:10:21;;;;;;;31.13;19.20;;;;;;;-0.34;81.98;99122.32;119230;1151;65046;-81
2021/01/09 07:12:52;;;;;;;33.20;22.53;;;;;;;-0.33;81.31;99126.65;119227;1151;65146;-79
2021/01/09 07:15:19;;;;;;;31.73;20.83;;;;;;;-0.31;82.01;99127.48;119267;1150;65597;-80
2021/01/09 07:17:55;;;;;;;38.53;25.87;;;;;;;-0.26;81.68;99130.02;119237;1151;65102;-79
2021/01/09 07:20:23;;;;;;;31.40;22.30;;;;;;;-0.22;82.05;99131.66;119230;1150;65293;-79
2021/01/09 07:22:52;;;;;;;33.15;23.10;;;;;;;-0.17;81.60;99135.05;119276;1150;65155;-79
2021/01/09 07:25:29;;;;;;;30.20;20.50;;;;;;;-0.15;81.10;99133.27;118910;1151;65134;-79
2021/01/09 07:27:58;;;;;;;27.43;19.37;;;;;;;-0.12;81.87;99135.81;118680;1150;65146;-78
2021/01/09 07:30:28;;;;;;;27.83;20.00;;;;;;;-0.10;81.26;99141.03;118675;1150;65074;-79
2021/01/09 07:32:56;;;;;;;28.27;20.27;;;;;;;-0.05;81.72;99149.66;119226;1150;65123;-79
2021/01/09 07:35:32;;;;;;;34.20;22.15;;;;;;;-0.02;81.50;99149.58;119257;1151;65196;-79
2021/01/09 07:38:01;;;;;;;26.90;19.93;;;;;;;0.01;81.73;99146.89;119099;1150;65249;-79
2021/01/09 07:40:33;;;;;;;30.77;20.80;;;;;;;0.04;81.12;99151.20;119128;1151;65140;-79
2021/01/09 07:43:00;;;;;;;34.83;20.73;;;;;;;0.07;81.50;99156.38;119316;1151;65129;-78
2021/01/09 07:45:32;;;;;;;34.10;22.10;;;;;;;0.09;81.10;99157.20;118952;1151;65226;-79
2021/01/09 07:47:59;;;;;;;36.67;23.47;;;;;;;0.12;81.34;99157.99;119271;1150;65054;-79
2021/01/09 07:50:43;;;;;;;35.03;22.07;;;;;;;0.17;81.08;99156.13;119256;1150;65228;-79
2021/01/09 07:53:23;;;;;;;39.60;22.90;;;;;;;0.26;80.95;99157.67;119263;1151;65124;-81
2021/01/09 07:55:49;;;;;;;43.57;21.97;;;;;;;0.32;81.10;99159.32;119243;1150;65629;-79
2021/01/09 07:58:16;;;;;;;40.70;25.10;;;;;;;0.34;81.03;99157.50;119162;1151;65110;-80
2021/01/09 08:00:42;;;;;;;43.73;25.23;;;;;;;0.39;80.61;99166.12;118850;1151;65132;-80
2021/01/09 08:03:12;;;;;;;33.90;22.47;;;;;;;0.42;81.09;99153.83;118965;1151;65133;-80
2021/01/09 08:05:38;;;;;;;30.15;21.90;;;;;;;0.48;80.97;99146.72;119118;1150;65118;-80
2021/01/09 08:08:05;;;;;;;33.77;22.90;;;;;;;0.55;80.99;99161.39;118653;1150;65117;-78
2021/01/09 08:10:34;;;;;;;33.20;23.65;;;;;;;0.59;80.27;99153.42;118596;1151;65139;-81
2021/01/09 08:13:07;;;;;;;40.23;24.63;;;;;;;0.63;80.35;99159.44;118862;1151;65149;-81
2021/01/09 08:15:36;;;;;;;34.60;24.10;;;;;;;0.69;80.23;99163.70;118736;1151;65132;-78
2021/01/09 08:18:06;;;;;;;36.80;23.90;;;;;;;0.75;80.08;99158.30;118641;1151;65123;-79
2021/01/09 08:20:34;;;;;;;39.50;26.65;;;;;;;0.80;80.54;99165.15;118775;1151;65111;-80
2021/01/09 08:23:03;;;;;;;44.57;29.67;;;;;;;0.86;80.06;99161.51;119227;1150;65130;-79
2021/01/09 08:25:42;;;;;;;46.77;29.80;;;;;;;0.90;80.21;99170.19;119263;1150;65625;-79
2021/01/09 08:28:09;;;;;;;38.50;25.90;;;;;;;0.94;79.88;99170.05;118988;1151;65127;-80
2021/01/09 08:30:38;;;;;;;43.23;29.67;;;;;;;1.03;80.53;99168.97;119235;1151;65031;-80
2021/01/09 08:33:16;;;;;;;47.13;28.60;;;;;;;1.13;79.70;99173.05;118675;1150;65113;-79
2021/01/09 08:35:48;;;;;;;37.70;24.50;;;;;;;1.26;79.89;99176.23;118659;1150;65158;-80
2021/01/09 08:38:15;;;;;;;36.25;24.20;;;;;;;1.38;80.12;99175.06;118767;1151;65114;-80
2021/01/09 08:40:42;;;;;;;36.30;23.47;;;;;;;1.50;79.87;99182.59;118805;1150;65140;-79
2021/01/09 08:43:11;;;;;;;35.95;24.35;;;;;;;1.63;79.69;99183.97;118658;1151;65639;-79
2021/01/09 08:45:47;;;;;;;33.00;23.10;;;;;;;1.75;78.90;99178.39;118489;1151;65098;-79
2021/01/09 08:48:23;;;;;;;30.30;23.27;;;;;;;1.86;78.68;99178.08;118951;1151;65245;-79
2021/01/09 08:51:05;;;;;;;36.93;24.70;;;;;;;1.99;78.92;99183.84;119241;1150;65207;-78
2021/01/09 08:53:39;;;;;;;38.20;25.15;;;;;;;2.11;78.93;99187.91;118965;1151;65050;-79
2021/01/09 08:56:07;;;;;;;33.87;23.57;;;;;;;2.16;78.43;99186.00;119020;1151;65126;-79
2021/01/09 08:58:37;;;;;;;31.50;22.60;;;;;;;2.20;78.30;99193.73;119251;1151;65131;-81
2021/01/09 09:01:08;;;;;;;30.77;23.83;;;;;;;2.24;78.10;99183.11;119301;1151;65132;-79
2021/01/09 09:03:39;;;;;;;29.10;21.85;;;;;;;2.26;77.68;99192.67;119284;1150;66183;-79
2021/01/09 09:06:08;;;;;;;32.00;24.07;;;;;;;2.28;77.36;99184.75;119055;1150;65103;-80
2021/01/09 09:08:35;;;;;;;37.43;25.43;;;;;;;2.28;77.40;99192.64;118968;1150;65056;-79
2021/01/09 09:11:04;;;;;;;34.13;23.73;;;;;;;2.22;77.17;99180.55;118849;1151;65187;-79
2021/01/09 09:13:31;;;;;;;31.03;20.87;;;;;;;2.25;77.66;99187.48;119192;1150;65181;-80
2021/01/09 09:15:58;;;;;;;32.57;22.63;;;;;;;2.31;77.48;99196.03;118809;1150;65606;-80
2021/01/09 09:18:32;;;;;;;27.75;21.25;;;;;;;2.37;77.16;99184.45;118828;1151;65121;-79
2021/01/09 09:20:59;;;;;;;32.60;22.00;;;;;;;2.48;76.88;99186.79;118528;1151;65114;-79
2021/01/09 09:23:25;;;;;;;31.67;23.10;;;;;;;2.60;76.53;99184.61;118373;1151;65104;-81
2021/01/09 09:26:05;;;;;;;32.50;23.60;;;;;;;2.72;76.45;99180.75;118509;1151;65165;-79
2021/01/09 09:28:43;;;;;;;32.10;22.23;;;;;;;2.81;75.68;99176.94;118644;1150;65155;-79
2021/01/09 09:31:27;;;;;;;29.97;22.50;;;;;;;2.86;75.69;99172.39;118613;1150;65121;-79
2021/01/09 09:34:17;;;;;;;28.93;20.43;;;;;;;2.87;75.31;99166.23;119047;1151;65127;-80
2021/01/09 09:36:52;;;;;;;30.77;22.07;;;;;;;2.81;75.80;99169.05;118988;1150;65041;-79
2021/01/09 09:39:21;;;;;;;30.13;20.97;;;;;;;2.77;75.18;99170.08;118750;1150;65165;-79
2021/01/09 09:41:55;;;;;;;29.80;21.65;;;;;;;2.67;74.89;99177.39;118785;1151;65114;-79
2021/01/09 09:44:36;;;;;;;33.10;22.70;;;;;;;2.61;75.29;99182.86;118571;1151;65095;-80
2021/01/09 09:47:05;;;;;;;28.37;19.70;;;;;;;2.60;75.09;99181.12;118760;1150;65098;-79
2021/01/09 09:49:34;;;;;;;38.10;23.37;;;;;;;2.60;75.44;99174.09;118627;1150;65098;-79
2021/01/09 09:52:02;;;;;;;32.28;23.77;;;;;;;2.62;75.85;99177.53;118894;1151;65136;-81
2021/01/09 09:54:31;;;;;;;37.13;26.60;;;;;;;2.63;75.53;99175.76;119093;1150;65127;-79
2021/01/09 09:56:58;;;;;;;36.53;25.50;;;;;;;2.63;75.15;99167.86;119115;1151;65059;-79
2021/01/09 09:59:30;;;;;;;40.85;26.85;;;;;;;2.63;75.71;99170.50;119297;1151;65037;-81
2021/01/09 10:02:00;;;;;;;38.40;25.27;;;;;;;2.71;75.68;99167.63;119097;1151;65156;-81
2021/01/09 10:04:29;;;;;;;37.35;26.20;;;;;;;2.74;75.64;99164.88;119317;1150;65146;-79
2021/01/09 10:06:56;;;;;;;37.97;26.40;;;;;;;2.84;75.28;99172.47;119324;1150;65251;-79
2021/01/09 10:09:24;;;;;;;42.80;26.80;;;;;;;2.92;75.18;99166.06;119304;1150;65121;-80
2021/01/09 10:11:53;;;;;;;35.23;24.50;;;;;;;2.91;74.39;99166.98;119081;1150;65111;-80
2021/01/09 10:14:19;;;;;;;38.03;26.77;;;;;;;2.93;74.83;99166.02;119338;1150;65063;-80
2021/01/09 10:16:46;;;;;;;40.53;27.23;;;;;;;2.93;74.94;99163.39;118783;1150;65226;-79
2021/01/09 10:19:15;;;;;;;34.10;24.17;;;;;;;2.93;74.46;99166.02;119251;1150;65117;-79
2021/01/09 10:21:42;;;;;;;30.57;22.77;;;;;;;2.91;74.46;99166.98;119074;1150;65223;-80
2021/01/09 10:24:08;;;;;;;32.90;22.83;;;;;;;2.85;74.12;99161.02;119320;1151;65118;-79
2021/01/09 10:26:38;;;;;;;35.05;23.40;;;;;;;2.72;73.14;99170.22;119285;1150;65220;-79
2021/01/09 10:29:05;;;;;;;30.65;21.80;;;;;;;2.60;73.02;99171.45;119113;1150;65098;-79
2021/01/09 10:31:34;;;;;;;31.43;21.57;;;;;;;2.56;74.37;99175.11;119003;1151;65136;-79
2021/01/09 10:34:01;;;;;;;29.45;20.65;;;;;;;2.58;74.08;99172.41;119031;1150;65440;-79
2021/01/09 10:36:35;;;;;;;27.87;19.37;;;;;;;2.55;73.36;99161.98;119276;1150;65046;-79
2021/01/09 10:39:04;;;;;;;30.77;22.03;;;;;;;2.53;73.97;99174.36;119026;1150;65117;-79
2021/01/09 10:41:30;;;;;;;32.17;22.20;;;;;;;2.56;74.57;99175.11;119014;1151;65120;-80
2021/01/09 10:43:57;;;;;;;31.67;21.10;;;;;;;2.56;73.90;99176.88;119264;1150;65580;-80
2021/01/09 10:46:25;;;;;;;33.80;23.20;;;;;;;2.59;74.33;99169.74;118663;1150;65184;-80
2021/01/09 10:48:52;;;;;;;29.23;21.33;;;;;;;2.63;74.40;99158.23;119265;1150;65124;-80
2021/01/09 10:51:21;;;;;;;32.63;22.07;;;;;;;2.69;74.21;99161.58;119270;1150;65114;-80
2021/01/09 10:53:48;;;;;;;33.37;22.43;;;;;;;2.71;73.89;99157.09;118943;1151;65232;-79
2021/01/09 10:56:16;;;;;;;34.50;23.27;;;;;;;2.73;74.28;99165.81;119013;1151;65114;-81
2021/01/09 10:58:43;;;;;;;33.83;22.37;;;;;;;2.71;73.20;99171.11;118994;1151;65129;-79
2021/01/09 11:01:09;;;;;;;36.93;24.90;;;;;;;2.67;73.92;99164.23;119256;1151;65204;-80
2021/01/09 11:03:36;;;;;;;38.23;25.33;;;;;;;2.61;73.97;99167.08;118967;1151;65129;-79
2021/01/09 11:06:03;;;;;;;42.07;29.53;;;;;;;2.61;74.28;99167.94;118963;1151;65215;-79
2021/01/09 11:08:29;;;;;;;37.40;24.07;;;;;;;2.65;74.62;99173.95;119009;1151;65251;-79
2021/01/09 11:10:55;;;;;;;39.73;26.47;;;;;;;2.59;74.05;99164.48;119000;1151;65146;-81
2021/01/09 11:13:22;;;;;;;43.43;27.57;;;;;;;2.53;74.78;99167.32;119234;1150;65107;-79
2021/01/09 11:15:50;;;;;;;42.50;26.23;;;;;;;2.46;74.17;99170.19;119000;1151;65149;-79
2021/01/09 11:18:18;;;;;;;42.20;29.47;;;;;;;2.36;74.64;99175.72;119241;1150;65185;-79
2021/01/09 11:20:46;;;;;;;44.30;29.00;;;;;;;2.34;75.05;99181.92;119262;1151;65057;-79